Time;durP1;ratioP1;P1;durP2;ratioP2;P2;SDS_P1;SDS_P2;PMS_P1;PMS_P2;Temp;Humidity;BMP_temperature;BMP_pressure;BME280_temperature;BME280_humidity;BME280_pressure;Samples;Min_cycle;Max_cycle;Signal;HPM_P1;HPM_P2
2022/05/16 00:02:15;;;;;;;9.38;3.92;;;;;;;15.97;57.12;101237.97;4983691;28;20406;-75
2022/05/16 00:04:43;;;;;;;11.25;4.32;;;;;;;15.97;56.17;101232.47;4978465;28;20034;-70
2022/05/16 00:07:09;;;;;;;12.05;4.35;;;;;;;15.92;56.54;101234.75;5003302;28;20128;-78
2022/05/16 00:09:35;;;;;;;11.38;4.15;;;;;;;15.91;56.67;101233.03;5008425;28;20109;-69
2022/05/16 00:12:01;;;;;;;11.18;4.00;;;;;;;15.89;56.92;101242.38;4981598;28;20038;-78
2022/05/16 00:14:26;;;;;;;14.50;4.03;;;;;;;15.79;58.13;101237.72;4990469;28;20038;-77
2022/05/16 00:16:52;;;;;;;7.20;3.42;;;;;;;15.84;57.50;101239.19;4982726;28;20390;-68
2022/05/16 00:19:17;;;;;;;10.18;4.15;;;;;;;15.76;57.83;101227.03;5015058;28;20494;-76
2022/05/16 00:21:43;;;;;;;9.82;4.28;;;;;;;15.76;57.88;101229.78;4989921;28;20023;-69
2022/05/16 00:24:08;;;;;;;12.20;4.57;;;;;;;15.71;57.68;101229.28;4982240;28;20099;-78
2022/05/16 00:26:34;;;;;;;9.98;4.30;;;;;;;15.69;57.48;101213.97;4990345;28;20117;-75
2022/05/16 00:29:00;;;;;;;10.23;4.43;;;;;;;15.68;57.99;101217.72;4985799;28;20102;-71
2022/05/16 00:31:26;;;;;;;10.82;4.40;;;;;;;15.62;57.41;101210.00;4984938;28;20048;-76
2022/05/16 00:33:51;;;;;;;8.73;4.15;;;;;;;15.62;57.76;101218.22;4978737;28;20118;-68
2022/05/16 00:36:16;;;;;;;8.68;4.05;;;;;;;15.57;58.35;101211.28;4988314;28;20491;-76
2022/05/16 00:38:42;;;;;;;14.52;4.03;;;;;;;15.55;58.12;101217.91;4985726;28;20039;-68
2022/05/16 00:41:07;;;;;;;10.40;4.50;;;;;;;15.55;58.29;101213.28;4974502;28;20045;-77
2022/05/16 00:43:55;;;;;;;9.35;4.22;;;;;;;15.56;57.32;101215.00;4970771;28;20848;-68
2022/05/16 00:46:23;;;;;;;10.55;4.40;;;;;;;15.53;58.59;101208.94;4974976;28;20038;-68
2022/05/16 00:48:49;;;;;;;8.35;3.90;;;;;;;15.52;58.96;101218.16;4961705;28;20070;-77
2022/05/16 00:51:30;;;;;;;10.50;4.90;;;;;;;15.51;57.71;101222.78;4983231;28;20129;-70
2022/05/16 00:54:04;;;;;;;7.85;4.00;;;;;;;15.47;59.44;101214.94;4987269;28;20043;-69
2022/05/16 00:56:31;;;;;;;10.38;4.43;;;;;;;15.39;59.52;101217.47;4976600;28;20046;-69
2022/05/16 00:58:57;;;;;;;10.48;4.53;;;;;;;15.35;59.17;101214.16;4977787;28;20031;-77
2022/05/16 01:06:54;;;;;;;11.15;4.50;;;;;;;15.28;59.77;101200.09;4987770;28;20429;-69
2022/05/16 01:09:20;;;;;;;14.23;5.00;;;;;;;15.18;60.43;101198.28;4988876;28;20041;-77
2022/05/16 01:11:45;;;;;;;11.60;4.72;;;;;;;15.15;59.90;101193.94;4990024;28;20034;-68
2022/05/16 01:14:11;;;;;;;12.07;4.70;;;;;;;15.14;59.80;101191.34;4968636;28;20402;-70
2022/05/16 01:16:36;;;;;;;9.80;4.70;;;;;;;15.12;60.15;101191.47;4969788;28;20042;-70
2022/05/16 01:19:02;;;;;;;9.70;5.00;;;;;;;15.11;60.30;101199.81;4980999;28;20034;-69
2022/05/16 01:21:34;;;;;;;11.73;4.47;;;;;;;15.12;59.61;101201.56;4993196;28;20034;-77
2022/05/16 01:24:12;;;;;;;11.13;4.57;;;;;;;15.11;59.17;101192.47;4990445;28;20031;-78
2022/05/16 01:26:39;;;;;;;14.23;5.38;;;;;;;15.10;59.93;101201.69;4985192;28;20084;-68
2022/05/16 01:29:05;;;;;;;11.20;4.85;;;;;;;15.08;60.26;101200.97;4988845;28;20124;-69
2022/05/16 01:31:32;;;;;;;8.60;4.50;;;;;;;15.06;60.63;101205.69;4988069;28;20286;-76
2022/05/16 01:33:57;;;;;;;8.65;5.03;;;;;;;15.04;60.18;101214.03;4987270;28;20070;-70
2022/05/16 01:36:23;;;;;;;12.00;4.63;;;;;;;15.02;60.69;101207.84;4988376;28;20113;-78
2022/05/16 01:38:49;;;;;;;11.50;4.93;;;;;;;14.97;61.12;101198.28;5015107;28;20049;-70
2022/05/16 01:41:23;;;;;;;12.88;4.63;;;;;;;14.92;60.71;101192.28;4993036;28;20030;-75
2022/05/16 01:43:51;;;;;;;10.60;5.10;;;;;;;14.90;60.85;101199.78;4990604;28;20409;-69
2022/05/16 01:46:24;;;;;;;11.45;4.88;;;;;;;14.89;60.62;101193.44;4983536;28;20023;-69
2022/05/16 01:48:51;;;;;;;7.63;4.60;;;;;;;14.85;60.79;101191.97;4982411;28;20042;-69
2022/05/16 01:51:16;;;;;;;10.50;4.70;;;;;;;14.80;61.33;101189.59;4979199;28;20033;-77
2022/05/16 01:53:43;;;;;;;11.23;4.72;;;;;;;14.77;61.50;101189.84;4988809;28;20057;-68
2022/05/16 01:56:08;;;;;;;14.45;4.78;;;;;;;14.73;61.34;101176.56;4986459;28;20047;-68
2022/05/16 01:58:34;;;;;;;10.73;4.40;;;;;;;14.70;61.70;101179.56;4992641;28;20076;-78
2022/05/16 02:00:59;;;;;;;10.75;5.10;;;;;;;14.69;61.54;101178.72;4987042;28;20043;-77
2022/05/16 02:03:25;;;;;;;11.73;5.80;;;;;;;14.65;61.77;101165.41;4983533;28;20051;-76
2022/05/16 02:05:50;;;;;;;15.40;5.10;;;;;;;14.64;61.36;101170.00;4986189;28;20050;-69
2022/05/16 02:08:16;;;;;;;7.43;4.85;;;;;;;14.67;62.02;101174.34;4992561;28;20030;-69
2022/05/16 02:10:43;;;;;;;11.48;4.72;;;;;;;14.59;61.43;101177.72;4991744;28;20077;-77
2022/05/16 02:13:09;;;;;;;13.13;4.88;;;;;;;14.57;62.66;101165.16;4987325;28;20030;-77
2022/05/16 02:15:37;;;;;;;12.65;5.38;;;;;;;14.52;63.02;101169.16;4989788;28;20089;-68
2022/05/16 02:18:04;;;;;;;10.68;4.88;;;;;;;14.48;62.44;101164.94;4985284;28;20125;-76
2022/05/16 02:20:30;;;;;;;13.32;5.32;;;;;;;14.48;62.54;101164.94;4991005;28;20036;-76
2022/05/16 02:25:43;;;;;;;15.00;5.30;;;;;;;14.41;62.56;101160.97;4992626;28;20038;-74
2022/05/16 02:28:10;;;;;;;11.13;5.15;;;;;;;14.42;62.86;101170.03;5011642;28;20035;-76
2022/05/16 02:30:36;;;;;;;11.20;5.40;;;;;;;14.36;64.09;101155.00;4984467;28;20038;-70
2022/05/16 02:33:03;;;;;;;10.43;5.38;;;;;;;14.29;63.75;101153.75;4983277;28;20022;-78
2022/05/16 02:35:30;;;;;;;8.00;5.00;;;;;;;14.27;63.18;101151.16;4977524;28;20034;-71
2022/05/16 02:37:58;;;;;;;10.38;5.50;;;;;;;14.30;63.54;101152.75;4987581;28;20045;-71
2022/05/16 02:40:25;;;;;;;11.20;5.30;;;;;;;14.29;63.33;101145.53;4991699;28;20465;-78
2022/05/16 02:42:52;;;;;;;15.85;5.95;;;;;;;14.25;63.35;101139.44;4983925;28;20070;-69
2022/05/16 02:45:17;;;;;;;8.43;5.35;;;;;;;14.23;63.17;101141.47;4985164;28;20023;-69
2022/05/16 02:47:43;;;;;;;11.60;5.43;;;;;;;14.23;63.44;101133.25;4982011;28;20525;-75
2022/05/16 02:50:09;;;;;;;6.80;5.07;;;;;;;14.23;63.22;101135.97;4987655;28;20035;-78
2022/05/16 02:52:34;;;;;;;13.23;6.30;;;;;;;14.19;63.92;101134.50;4974908;28;20034;-77
2022/05/16 02:55:02;;;;;;;9.63;4.88;;;;;;;14.19;63.74;101130.91;4988175;28;20532;-77
2022/05/16 02:57:28;;;;;;;12.88;5.80;;;;;;;14.17;63.61;101133.72;4986876;28;20125;-69
2022/05/16 02:59:54;;;;;;;12.20;5.82;;;;;;;14.16;64.11;101125.66;4977987;28;20031;-70
2022/05/16 03:02:20;;;;;;;15.23;5.45;;;;;;;14.14;64.26;101123.06;4984819;28;20041;-68
2022/05/16 03:04:45;;;;;;;11.38;5.85;;;;;;;14.14;64.32;101125.81;4984927;28;20071;-77
2022/05/16 03:07:10;;;;;;;11.68;5.88;;;;;;;14.11;64.35;101114.22;4990229;28;20061;-69
2022/05/16 03:09:36;;;;;;;13.00;5.47;;;;;;;14.02;65.01;101108.53;4989956;28;20026;-70
2022/05/16 03:12:02;;;;;;;12.60;5.68;;;;;;;14.01;65.21;101111.41;4991085;28;20053;-77
2022/05/16 03:14:27;;;;;;;8.35;5.97;;;;;;;13.97;65.40;101110.78;4986971;28;20087;-77
2022/05/16 03:16:52;;;;;;;9.48;5.32;;;;;;;13.99;65.20;101111.53;4972901;28;20031;-71
2022/05/16 03:19:18;;;;;;;10.55;5.55;;;;;;;13.99;64.57;101108.78;5010670;28;20026;-69
2022/05/16 03:21:43;;;;;;;8.55;5.68;;;;;;;14.01;64.84;101111.41;4973834;28;20097;-73
2022/05/16 03:24:09;;;;;;;8.10;5.90;;;;;;;13.98;65.03;101109.78;4985863;28;20077;-70
2022/05/16 03:26:38;;;;;;;9.20;5.38;;;;;;;13.95;65.71;101110.03;4983500;28;20036;-70
2022/05/16 03:29:06;;;;;;;11.07;6.03;;;;;;;13.88;66.76;101106.06;4985771;28;20092;-69
2022/05/16 03:31:32;;;;;;;12.90;6.18;;;;;;;13.84;66.59;101112.78;4971094;28;20058;-71
2022/05/16 03:33:57;;;;;;;8.98;5.75;;;;;;;13.83;66.07;101119.25;4980740;28;20069;-78
2022/05/16 03:36:23;;;;;;;14.75;5.60;;;;;;;13.84;66.74;101118.25;4986699;28;20023;-70
2022/05/16 03:41:32;;;;;;;8.45;5.60;;;;;;;13.81;66.27;101109.44;4991014;28;20056;-77
2022/05/16 03:43:58;;;;;;;14.30;6.15;;;;;;;13.81;66.47;101118.50;4990261;28;20035;-75
2022/05/16 03:46:24;;;;;;;10.20;5.63;;;;;;;13.80;66.63;101119.47;4985038;28;20126;-77
2022/05/16 03:48:49;;;;;;;10.60;6.18;;;;;;;13.74;66.52;101112.66;4974841;28;20039;-71
2022/05/16 03:51:15;;;;;;;9.82;5.82;;;;;;;13.75;67.41;101119.00;4986187;28;20395;-77
2022/05/16 03:53:47;;;;;;;9.75;5.82;;;;;;;13.74;66.75;101115.38;4983018;28;20031;-70
2022/05/16 03:56:17;;;;;;;11.48;6.43;;;;;;;13.72;67.43;101113.78;5004422;28;20046;-76
2022/05/16 03:58:43;;;;;;;11.32;6.57;;;;;;;13.78;67.26;101118.75;4980022;28;20031;-77
2022/05/16 04:01:08;;;;;;;9.95;5.53;;;;;;;13.82;67.77;101113.91;4982863;28;20088;-70
2022/05/16 04:03:35;;;;;;;14.30;6.50;;;;;;;13.73;68.27;101113.66;4981670;28;20045;-68
2022/05/16 04:06:00;;;;;;;13.18;6.28;;;;;;;13.70;68.77;101111.16;4986278;28;20074;-78
2022/05/16 04:08:26;;;;;;;12.75;6.07;;;;;;;13.69;68.39;101109.44;4974739;28;20125;-70
2022/05/16 04:10:52;;;;;;;15.35;5.75;;;;;;;13.65;67.63;101097.00;4975169;28;20109;-69
2022/05/16 04:13:17;;;;;;;9.43;5.47;;;;;;;13.73;67.55;101108.19;4979791;28;20185;-72
2022/05/16 04:15:42;;;;;;;8.18;5.68;;;;;;;13.78;67.04;101113.28;4982759;28;20172;-77
2022/05/16 04:18:08;;;;;;;10.10;5.60;;;;;;;13.83;67.18;101118.38;4973003;28;20030;-76
2022/05/16 04:20:33;;;;;;;9.15;5.80;;;;;;;13.88;66.36;101110.66;4975350;28;20031;-70
2022/05/16 04:22:59;;;;;;;11.93;6.07;;;;;;;13.95;66.62;101120.13;4971298;28;20060;-77
2022/05/16 04:25:24;;;;;;;10.15;5.60;;;;;;;14.00;66.66;101126.94;4977944;28;20030;-69
2022/05/16 04:27:49;;;;;;;7.80;4.55;;;;;;;14.03;67.77;101125.81;4973463;28;20039;-74
2022/05/16 04:30:15;;;;;;;11.75;6.43;;;;;;;13.99;68.41;101122.47;4967347;28;20044;-74
2022/05/16 04:32:41;;;;;;;10.57;6.05;;;;;;;13.93;69.31;101117.50;4977808;28;20361;-69
2022/05/16 04:35:07;;;;;;;11.15;5.97;;;;;;;13.92;67.63;101115.75;4980940;28;20057;-77
2022/05/16 04:37:32;;;;;;;11.18;6.13;;;;;;;13.93;69.96;101114.75;4980316;28;20596;-77
2022/05/16 04:39:59;;;;;;;10.63;6.03;;;;;;;13.99;67.98;101127.06;4983524;28;20979;-78
2022/05/16 04:42:40;;;;;;;14.07;5.75;;;;;;;14.07;69.37;101123.69;4985036;28;20117;-69
2022/05/16 04:45:27;;;;;;;8.93;5.53;;;;;;;14.16;67.62;101128.41;5001556;28;20034;-78
2022/05/16 04:47:56;;;;;;;9.98;5.78;;;;;;;14.17;69.34;101124.66;4972501;28;20068;-69
2022/05/16 04:50:27;;;;;;;7.47;5.25;;;;;;;14.23;68.66;101122.31;4982597;28;20085;-69
2022/05/16 04:52:54;;;;;;;9.00;5.65;;;;;;;14.29;67.96;101124.50;4986449;28;20342;-69
2022/05/16 04:55:20;;;;;;;13.52;5.93;;;;;;;14.31;68.96;101121.63;4981810;28;20065;-70
2022/05/16 04:57:45;;;;;;;11.57;5.95;;;;;;;14.42;68.98;101129.84;4974083;28;20034;-70
2022/05/16 05:00:13;;;;;;;10.32;5.43;;;;;;;14.49;68.04;101139.28;4974651;28;20081;-76
2022/05/16 05:02:39;;;;;;;7.47;5.00;;;;;;;14.60;68.28;101137.53;4976160;28;20477;-73
2022/05/16 05:05:06;;;;;;;10.85;6.15;;;;;;;14.70;68.47;101135.75;5023054;28;20034;-77
2022/05/16 05:07:31;;;;;;;7.90;5.25;;;;;;;14.81;69.50;101132.94;5004641;28;20178;-77
2022/05/16 05:15:25;;;;;;;16.73;5.82;;;;;;;15.38;67.58;101120.66;5005591;28;20034;-77
2022/05/16 05:17:51;;;;;;;11.95;5.55;;;;;;;15.57;68.29;101122.63;4980975;28;20486;-68
2022/05/16 05:20:17;;;;;;;9.40;5.20;;;;;;;15.79;65.30;101130.72;4980404;28;20074;-69
2022/05/16 05:22:45;;;;;;;15.25;6.00;;;;;;;16.03;66.25;101135.00;4983242;28;20042;-78
2022/05/16 05:25:15;;;;;;;39.00;6.57;;;;;;;16.22;65.12;101135.03;4981166;28;20122;-75
2022/05/16 05:27:41;;;;;;;49.13;7.95;;;;;;;16.38;63.61;101129.03;5004998;28;20121;-77
2022/05/16 05:30:09;;;;;;;26.10;6.78;;;;;;;16.53;64.55;101132.22;4984285;28;20034;-77
2022/05/16 05:32:35;;;;;;;13.50;6.40;;;;;;;16.64;63.01;101122.97;4986461;28;20092;-69
2022/05/16 05:35:01;;;;;;;10.80;5.57;;;;;;;16.74;64.91;101126.63;4984768;28;20030;-78
2022/05/16 05:37:26;;;;;;;18.27;6.18;;;;;;;16.88;65.08;101128.97;4990348;28;20034;-69
2022/05/16 05:39:52;;;;;;;12.20;6.20;;;;;;;17.04;65.65;101125.63;4987542;28;20027;-70
2022/05/16 05:42:18;;;;;;;15.30;5.90;;;;;;;17.14;63.05;101134.72;4984259;28;20034;-69
2022/05/16 05:44:44;;;;;;;11.98;5.57;;;;;;;17.32;61.85;101141.19;4990622;28;20375;-75
2022/05/16 05:47:09;;;;;;;8.93;5.65;;;;;;;17.44;60.99;101141.00;4987223;28;20038;-69
2022/05/16 05:49:36;;;;;;;13.25;5.85;;;;;;;17.59;63.76;101147.81;4987633;28;20026;-77
2022/05/16 05:52:02;;;;;;;12.20;5.75;;;;;;;17.74;63.58;101149.06;4975844;28;20038;-78
2022/05/16 05:54:27;;;;;;;9.23;5.30;;;;;;;17.77;61.98;101139.66;4963598;28;20039;-78
2022/05/16 05:56:53;;;;;;;8.38;5.55;;;;;;;17.82;62.68;101148.34;4974371;28;20070;-69
2022/05/16 05:59:18;;;;;;;11.77;5.18;;;;;;;17.87;60.66;101150.63;4992949;28;20116;-69
2022/05/16 06:01:43;;;;;;;10.73;6.07;;;;;;;17.92;61.29;101153.81;4982830;28;20070;-73
2022/05/16 06:04:09;;;;;;;13.00;6.18;;;;;;;17.99;62.67;101158.53;4984429;28;20062;-68
2022/05/16 06:06:34;;;;;;;13.55;5.90;;;;;;;18.06;60.91;101158.81;4985376;28;20047;-75
2022/05/16 06:08:59;;;;;;;11.98;5.47;;;;;;;18.11;61.43;101161.97;4987057;28;20046;-69
2022/05/16 06:11:28;;;;;;;11.60;4.95;;;;;;;18.14;60.82;101160.78;4984711;28;20037;-78
2022/05/16 06:13:58;;;;;;;11.93;6.30;;;;;;;18.23;64.08;101165.38;4987011;28;20115;-69
2022/05/16 06:16:23;;;;;;;7.13;5.65;;;;;;;18.35;61.42;101169.66;4988575;28;20046;-78
2022/05/16 06:18:49;;;;;;;12.07;5.88;;;;;;;18.48;62.83;101172.94;4981229;28;20061;-69
2022/05/16 06:21:14;;;;;;;11.77;5.78;;;;;;;18.56;62.72;101164.75;4984725;28;20052;-69
2022/05/16 06:23:39;;;;;;;9.27;5.82;;;;;;;18.61;62.18;101172.56;4973255;28;20042;-69
2022/05/16 06:26:05;;;;;;;15.23;6.50;;;;;;;18.65;62.57;101176.72;4973020;28;20077;-70
2022/05/16 06:28:34;;;;;;;8.88;5.95;;;;;;;18.70;62.11;101176.28;4988865;28;20042;-79
2022/05/16 06:31:00;;;;;;;8.80;4.97;;;;;;;18.78;59.13;101180.00;4977680;28;20050;-70
2022/05/16 06:33:31;;;;;;;9.93;4.97;;;;;;;18.93;58.39;101173.94;4977860;28;20474;-69
2022/05/16 06:35:58;;;;;;;9.27;4.47;;;;;;;19.05;58.85;101184.59;4958666;28;20035;-69
2022/05/16 06:38:26;;;;;;;257.60;23.75;;;;;;;19.15;59.18;101176.22;4979257;28;20164;-70
2022/05/16 06:40:52;;;;;;;15.25;4.85;;;;;;;19.19;57.78;101179.53;4971521;28;20104;-77
2022/05/16 06:43:20;;;;;;;13.27;4.68;;;;;;;19.27;57.94;101176.84;4971788;28;20042;-77
2022/05/16 06:45:46;;;;;;;18.42;4.80;;;;;;;19.35;56.78;101186.06;4983815;28;20023;-78
2022/05/16 06:48:12;;;;;;;8.45;4.35;;;;;;;19.40;57.20;101190.22;4976891;28;20370;-75
2022/05/16 06:50:40;;;;;;;13.40;4.13;;;;;;;19.46;57.55;101190.47;4991402;28;20465;-70
2022/05/16 06:53:08;;;;;;;10.68;4.22;;;;;;;19.47;58.60;101185.81;5009635;28;20394;-77
2022/05/16 06:55:33;;;;;;;8.57;4.00;;;;;;;19.47;58.48;101180.28;4981929;28;20042;-77
2022/05/16 06:57:59;;;;;;;8.13;4.00;;;;;;;19.58;60.68;101186.41;4982556;28;20033;-69
2022/05/16 07:00:26;;;;;;;10.25;4.05;;;;;;;19.62;58.38;101189.72;4981208;28;20491;-77
2022/05/16 07:02:51;;;;;;;7.95;4.18;;;;;;;19.70;59.06;101198.09;5003069;28;20051;-69
2022/05/16 07:05:17;;;;;;;7.55;3.78;;;;;;;19.87;58.77;101201.81;4990963;28;20039;-77
2022/05/16 07:07:42;;;;;;;12.55;4.70;;;;;;;19.91;57.78;101194.94;4989202;28;20540;-69
2022/05/16 07:10:08;;;;;;;8.02;3.92;;;;;;;20.02;59.58;101199.31;4972922;28;20026;-79
2022/05/16 07:12:34;;;;;;;7.50;3.78;;;;;;;20.04;58.96;101197.25;4971685;28;20394;-77
2022/05/16 07:14:59;;;;;;;11.43;3.83;;;;;;;20.08;57.42;101198.66;4981952;28;20070;-69
2022/05/16 07:17:24;;;;;;;7.43;3.30;;;;;;;20.19;59.02;101205.78;4972467;28;20542;-69
2022/05/16 07:19:50;;;;;;;9.07;4.00;;;;;;;20.22;56.99;101206.31;4980714;28;20058;-77
2022/05/16 07:22:19;;;;;;;8.07;3.40;;;;;;;20.33;57.34;101210.69;4990950;28;20042;-77
2022/05/16 07:24:45;;;;;;;14.45;4.40;;;;;;;20.44;57.50;101213.16;4976873;28;20556;-69
2022/05/16 07:29:56;;;;;;;11.80;3.67;;;;;;;20.58;58.82;101218.09;4975462;28;20042;-70
2022/05/16 07:32:21;;;;;;;9.60;3.85;;;;;;;20.64;57.32;101205.50;4977489;28;20504;-76
2022/05/16 07:34:48;;;;;;;7.80;3.70;;;;;;;20.60;57.14;101212.38;4985884;28;20341;-75
2022/05/16 07:37:13;;;;;;;10.63;3.78;;;;;;;20.72;58.21;101208.28;4972335;28;20027;-70
2022/05/16 07:39:38;;;;;;;9.75;3.63;;;;;;;20.94;57.44;101211.44;4976592;28;20125;-77
2022/05/16 07:42:07;;;;;;;7.25;3.83;;;;;;;21.14;57.18;101219.25;4975044;28;20058;-77
2022/05/16 07:44:37;;;;;;;9.65;3.95;;;;;;;21.31;55.45;101209.13;4973174;28;20023;-77
2022/05/16 07:47:03;;;;;;;8.43;4.38;;;;;;;21.58;56.55;101210.66;4980658;28;20164;-70
2022/05/16 07:49:28;;;;;;;8.57;3.45;;;;;;;21.84;57.19;101217.91;4971436;28;20042;-69
2022/05/16 07:51:54;;;;;;;11.77;3.78;;;;;;;22.02;56.86;101218.56;5009460;28;20041;-77
2022/05/16 07:54:19;;;;;;;8.07;3.97;;;;;;;22.11;55.56;101219.41;4990758;28;20105;-71
2022/05/16 07:56:45;;;;;;;11.20;4.70;;;;;;;22.26;56.89;101219.56;4986019;28;20053;-78
2022/05/16 07:59:11;;;;;;;11.40;5.22;;;;;;;22.40;53.61;101227.13;4980544;28;20044;-70
2022/05/16 08:01:37;;;;;;;13.15;4.63;;;;;;;22.46;52.82;101226.41;4976611;28;20042;-76
2022/05/16 08:04:05;;;;;;;11.73;4.60;;;;;;;22.57;54.26;101230.69;4991002;28;20508;-77
2022/05/16 08:06:30;;;;;;;13.38;4.70;;;;;;;22.63;54.54;101225.31;4980755;28;20045;-76
2022/05/16 08:11:40;;;;;;;12.40;3.70;;;;;;;22.71;53.89;101229.06;4971681;28;20057;-76
2022/05/16 08:14:06;;;;;;;17.27;3.13;;;;;;;23.00;53.62;101232.06;4974282;28;20042;-74
2022/05/16 08:16:31;;;;;;;8.10;3.05;;;;;;;23.57;52.51;101226.09;4969497;28;20049;-73
2022/05/16 08:18:57;;;;;;;6.47;2.75;;;;;;;24.06;51.38;101225.66;4974705;28;20065;-69
2022/05/16 08:21:22;;;;;;;11.02;3.17;;;;;;;24.47;49.00;101225.19;4978662;28;20553;-77
2022/05/16 08:23:48;;;;;;;5.07;2.60;;;;;;;24.65;48.12;101227.56;4978258;28;20054;-76
2022/05/16 08:26:13;;;;;;;11.68;2.90;;;;;;;24.79;49.10;101234.16;4983174;28;20034;-72
2022/05/16 08:28:39;;;;;;;5.45;2.90;;;;;;;24.89;47.17;101231.94;4989464;28;20042;-71
2022/05/16 08:31:05;;;;;;;9.52;2.85;;;;;;;25.00;48.87;101238.94;4988181;28;20409;-78
2022/05/16 08:33:32;;;;;;;7.00;2.80;;;;;;;25.49;46.78;101243.78;4982993;28;20089;-70
2022/05/16 08:41:29;;;;;;;11.93;2.67;;;;;;;26.63;44.21;101236.09;4988574;28;20482;-69
2022/05/16 08:44:09;;;;;;;9.48;2.50;;;;;;;26.61;44.41;101233.50;4983286;28;20030;-69
2022/05/16 08:46:39;;;;;;;6.57;2.53;;;;;;;27.02;44.08;101245.72;4986632;28;20038;-69
2022/05/16 08:49:16;;;;;;;10.15;2.60;;;;;;;27.35;43.16;101238.31;4976993;28;20418;-78
2022/05/16 08:51:46;;;;;;;7.28;2.40;;;;;;;27.65;42.79;101237.91;5025121;28;20034;-70
2022/05/16 08:54:32;;;;;;;8.10;2.55;;;;;;;27.54;41.00;101233.81;4988680;28;20096;-74
2022/05/16 08:57:02;;;;;;;6.63;2.75;;;;;;;27.77;41.68;101236.22;4990438;28;20043;-77
2022/05/16 08:59:32;;;;;;;8.70;2.58;;;;;;;28.11;40.48;101240.72;4986971;28;20077;-68
2022/05/16 09:02:06;;;;;;;6.38;2.55;;;;;;;28.23;41.25;101232.53;4992089;28;20477;-74
2022/05/16 09:04:47;;;;;;;8.63;2.60;;;;;;;28.46;41.10;101243.28;5002847;28;20038;-69
2022/05/16 09:07:18;;;;;;;5.38;2.55;;;;;;;28.76;41.01;101228.72;4981205;28;20030;-69
2022/05/16 09:09:53;;;;;;;7.55;2.33;;;;;;;28.89;39.35;101228.69;4994126;28;20548;-71
2022/05/16 09:12:27;;;;;;;3.92;2.15;;;;;;;29.07;40.22;101234.44;4992690;28;20053;-75
2022/05/16 09:15:16;;;;;;;4.72;2.40;;;;;;;29.34;41.08;101229.53;4987557;28;20088;-70
2022/05/16 09:17:58;;;;;;;2.67;1.77;;;;;;;29.56;39.24;101226.38;4986601;28;20030;-68
2022/05/16 09:20:47;;;;;;;7.45;2.53;;;;;;;29.50;38.58;101233.72;4990553;28;20067;-69
2022/05/16 09:23:58;;;;;;;5.88;2.40;;;;;;;29.38;38.29;101227.16;4992201;28;20125;-68
2022/05/16 09:26:47;;;;;;;4.10;2.10;;;;;;;29.27;39.36;101230.66;4985895;28;20046;-69
2022/05/16 09:29:22;;;;;;;4.13;2.05;;;;;;;29.61;38.19;101232.16;4982450;28;20037;-73
2022/05/16 09:31:49;;;;;;;7.45;3.08;;;;;;;30.05;37.45;101236.75;4985699;28;20066;-73
2022/05/16 09:34:15;;;;;;;5.68;2.58;;;;;;;30.22;37.72;101225.84;4982867;28;20042;-76
2022/05/16 09:36:45;;;;;;;8.32;2.35;;;;;;;30.33;37.88;101236.28;4976098;28;20038;-74
2022/05/16 09:39:17;;;;;;;5.55;2.47;;;;;;;30.14;36.45;101237.34;4976099;28;20067;-69
2022/05/16 09:41:51;;;;;;;4.47;2.85;;;;;;;30.41;37.57;101244.41;4981379;28;20053;-68
2022/05/16 09:44:38;;;;;;;6.97;2.50;;;;;;;30.41;38.32;101241.59;4975222;28;20364;-68
2022/05/16 09:47:40;;;;;;;7.03;2.75;;;;;;;30.84;38.04;101253.88;4984272;28;20057;-72
2022/05/16 09:50:05;;;;;;;8.25;2.45;;;;;;;30.61;35.42;101243.31;4973204;28;20074;-76
2022/05/16 09:52:32;;;;;;;5.28;2.35;;;;;;;30.58;37.08;101257.81;4984936;28;20068;-69
2022/05/16 09:55:07;;;;;;;10.77;2.55;;;;;;;30.72;38.05;101262.22;4989660;28;20050;-69
2022/05/16 09:57:47;;;;;;;6.63;2.50;;;;;;;31.02;36.50;101265.09;4979557;28;20556;-75
2022/05/16 10:00:22;;;;;;;4.97;2.25;;;;;;;30.98;34.87;101267.53;4987035;28;20073;-77
2022/05/16 10:03:01;;;;;;;7.05;3.20;;;;;;;30.60;35.64;101272.50;4985023;28;20038;-72
2022/05/16 10:05:31;;;;;;;6.43;2.80;;;;;;;30.26;35.86;101288.81;4990525;28;20030;-76
2022/05/16 10:08:14;;;;;;;5.85;2.83;;;;;;;30.26;37.55;101288.81;4987738;28;20031;-75
2022/05/16 10:10:47;;;;;;;9.15;2.97;;;;;;;30.28;37.78;101292.28;4975927;28;20404;-68
2022/05/16 10:13:15;;;;;;;7.57;3.25;;;;;;;30.18;36.53;101289.13;4991619;28;20057;-75
2022/05/16 10:15:40;;;;;;;6.18;3.05;;;;;;;30.11;38.04;101296.72;4990554;28;20046;-68
2022/05/16 10:18:12;;;;;;;7.20;2.83;;;;;;;29.91;37.97;101299.69;4986359;28;20037;-77
2022/05/16 10:20:45;;;;;;;;;;;;;;;29.88;37.47;101306.59;4988408;28;20497;-71
2022/05/16 10:23:28;;;;;;;11.68;3.67;;;;;;;28.85;39.32;101305.84;4990877;28;19918;-75
2022/05/16 10:25:58;;;;;;;7.60;3.20;;;;;;;28.14;40.10;101313.03;5020283;28;20532;-69
2022/05/16 10:28:49;;;;;;;15.35;3.53;;;;;;;27.77;41.28;101327.66;4988688;28;20069;-75
2022/05/16 10:34:18;;;;;;;12.82;3.60;;;;;;;26.40;45.28;101348.00;4979729;28;20056;-75
2022/05/16 10:36:48;;;;;;;13.07;4.05;;;;;;;25.99;47.30;101353.44;4971575;28;20038;-71
2022/05/16 10:39:18;;;;;;;13.90;3.72;;;;;;;25.61;48.14;101351.72;4970374;28;20054;-72
2022/05/16 10:42:03;;;;;;;12.63;3.47;;;;;;;25.40;48.84;101362.84;4971083;28;20062;-68
2022/05/16 10:44:40;;;;;;;10.07;3.58;;;;;;;25.30;51.05;101379.84;4976144;28;20061;-69
2022/05/16 10:47:25;;;;;;;9.00;3.60;;;;;;;25.21;50.99;101377.38;5004643;28;20116;-72
2022/05/16 10:50:29;;;;;;;9.02;3.60;;;;;;;25.21;54.52;101381.03;4976093;28;20117;-77
2022/05/16 10:53:04;;;;;;;8.23;3.67;;;;;;;25.41;52.55;101376.59;4980307;28;20037;-78
2022/05/16 10:55:39;;;;;;;6.68;3.90;;;;;;;25.89;52.61;101385.28;4956449;28;20525;-75
2022/05/16 10:58:32;;;;;;;9.40;3.78;;;;;;;26.45;51.07;101384.56;4955194;28;20085;-72
2022/05/16 11:01:20;;;;;;;8.65;4.00;;;;;;;26.94;48.23;101389.16;4973051;28;20118;-70
2022/05/16 11:04:07;;;;;;;11.07;4.10;;;;;;;26.92;48.48;101392.19;4974454;28;20565;-71
2022/05/16 11:06:41;;;;;;;11.27;3.97;;;;;;;26.88;47.98;101388.06;4972475;28;20390;-75
2022/05/16 11:09:18;;;;;;;11.25;4.38;;;;;;;26.78;47.45;101392.31;4984464;28;20042;-70
2022/05/16 11:11:46;;;;;;;11.15;4.53;;;;;;;26.56;47.63;101400.72;4987906;28;20030;-72
2022/05/16 11:14:32;;;;;;;12.00;4.50;;;;;;;26.44;47.53;101402.38;4969151;28;20045;-75
2022/05/16 11:17:11;;;;;;;11.52;4.78;;;;;;;26.07;48.36;101404.34;4971686;28;20042;-68
2022/05/16 11:19:52;;;;;;;12.35;4.68;;;;;;;25.85;48.63;101411.84;4969461;28;20072;-70
2022/05/16 11:22:35;;;;;;;12.40;4.65;;;;;;;25.64;49.07;101411.75;4977332;28;20493;-68
2022/05/16 11:25:08;;;;;;;9.48;4.40;;;;;;;25.37;49.67;101408.69;4974768;28;20047;-69
2022/05/16 11:27:51;;;;;;;10.57;5.00;;;;;;;25.25;51.33;101404.66;4984997;28;20030;-76
2022/05/16 11:30:58;;;;;;;10.55;4.95;;;;;;;25.24;50.11;101413.22;4984340;28;20122;-77
2022/05/16 11:33:35;;;;;;;9.63;4.88;;;;;;;25.23;50.86;101414.25;4969698;28;20039;-76
2022/05/16 11:36:17;;;;;;;13.02;4.78;;;;;;;25.20;50.77;101415.50;4982673;28;20054;-72
2022/05/16 11:39:02;;;;;;;24.05;5.57;;;;;;;24.98;52.71;101417.28;4977058;28;20042;-69
2022/05/16 11:41:59;;;;;;;10.57;5.28;;;;;;;24.71;53.59;101417.94;4979541;28;20109;-73
2022/05/16 11:44:31;;;;;;;14.82;5.78;;;;;;;24.40;56.07;101428.16;4983789;28;20065;-71
2022/05/16 11:47:21;;;;;;;13.88;5.82;;;;;;;24.41;54.67;101426.25;4969273;28;20061;-74
2022/05/16 11:50:22;;;;;;;8.20;5.82;;;;;;;24.58;55.49;101427.81;4973774;28;20096;-74
2022/05/16 11:53:00;;;;;;;9.90;5.07;;;;;;;24.86;55.38;101424.41;4984454;28;20054;-70
2022/05/16 12:01:21;;;;;;;10.00;5.25;;;;;;;25.51;55.38;101429.22;4979564;28;20054;-69
2022/05/16 12:04:05;;;;;;;10.85;6.53;;;;;;;25.42;53.65;101430.38;4973018;28;20054;-69
2022/05/16 12:06:39;;;;;;;9.93;6.55;;;;;;;25.28;53.98;101443.25;4985861;28;20055;-68
2022/05/16 12:09:15;;;;;;;19.45;8.50;;;;;;;24.96;54.58;101438.91;4986863;28;20041;-70
2022/05/16 12:11:49;;;;;;;16.58;9.23;;;;;;;24.60;55.21;101447.09;4981276;28;20051;-68